createdAt,value
2018-08-22T00:00:10.956Z,16.45
2018-08-22T00:03:15.230Z,16.46
2018-08-22T00:06:19.500Z,16.49
2018-08-22T00:09:23.773Z,16.50
2018-08-22T00:12:28.033Z,16.52
2018-08-22T00:15:32.317Z,16.53
2018-08-22T00:18:36.554Z,16.53
2018-08-22T00:21:40.805Z,16.56
2018-08-22T00:24:45.052Z,16.55
2018-08-22T00:27:49.336Z,16.53
2018-08-22T00:30:53.599Z,16.53
2018-08-22T00:33:57.883Z,16.52
2018-08-22T00:37:02.173Z,16.51
2018-08-22T00:40:06.668Z,16.50
2018-08-22T00:43:11.142Z,16.48
2018-08-22T00:46:15.452Z,16.50
2018-08-22T00:49:19.763Z,16.47
2018-08-22T00:52:24.152Z,16.45
2018-08-22T00:55:28.449Z,16.44
2018-08-22T00:58:32.762Z,16.42
2018-08-22T01:01:37.011Z,16.41
2018-08-22T01:04:41.265Z,16.40
2018-08-22T01:07:45.548Z,16.39
2018-08-22T01:10:49.806Z,16.34
2018-08-22T01:13:54.080Z,16.31
2018-08-22T01:16:58.411Z,16.29
2018-08-22T01:20:02.668Z,16.28
2018-08-22T01:23:06.564Z,16.26
2018-08-22T01:26:10.844Z,16.23
2018-08-22T01:29:15.105Z,16.22
2018-08-22T01:32:19.378Z,16.20
2018-08-22T01:35:23.629Z,16.19
2018-08-22T01:38:27.939Z,16.13
2018-08-22T01:41:32.180Z,16.12
2018-08-22T01:44:36.448Z,16.13
2018-08-22T01:47:40.757Z,16.12
2018-08-22T01:50:45.051Z,16.11
2018-08-22T01:53:49.291Z,16.07
2018-08-22T01:56:54.159Z,16.03
2018-08-22T01:59:58.506Z,16.03
2018-08-22T02:03:02.760Z,16.02
2018-08-22T02:06:07.018Z,16.01
2018-08-22T02:09:12.520Z,16.00
2018-08-22T02:12:16.783Z,16.00
2018-08-22T02:15:21.052Z,15.99
2018-08-22T02:18:25.318Z,15.96
2018-08-22T02:21:29.577Z,15.94
2018-08-22T02:24:33.832Z,15.92
2018-08-22T02:27:38.107Z,15.90
2018-08-22T02:30:42.394Z,15.87
2018-08-22T02:33:46.706Z,15.86
2018-08-22T02:36:51.116Z,15.85
2018-08-22T02:39:55.374Z,15.83
2018-08-22T02:42:59.675Z,15.84
2018-08-22T02:46:03.929Z,15.80
2018-08-22T02:49:12.311Z,15.78
2018-08-22T02:52:16.608Z,15.74
2018-08-22T02:55:20.856Z,15.73
2018-08-22T02:58:25.117Z,15.72
2018-08-22T03:01:29.366Z,15.70
2018-08-22T03:04:33.649Z,15.67
2018-08-22T03:07:37.937Z,15.66
2018-08-22T03:10:42.184Z,15.67
2018-08-22T03:13:46.480Z,15.64
2018-08-22T03:16:50.778Z,15.62
2018-08-22T03:19:55.129Z,15.57
2018-08-22T03:22:59.661Z,15.57
2018-08-22T03:26:03.962Z,15.55
2018-08-22T03:29:08.496Z,15.55
2018-08-22T03:32:12.730Z,15.55
2018-08-22T03:35:17.012Z,15.55
2018-08-22T03:38:21.321Z,15.55
2018-08-22T03:41:27.404Z,15.54
2018-08-22T03:44:31.721Z,15.52
2018-08-22T03:47:35.965Z,15.52
2018-08-22T03:50:40.202Z,15.52
2018-08-22T03:53:44.992Z,15.51
2018-08-22T03:56:49.427Z,15.50
2018-08-22T03:59:53.783Z,15.50
2018-08-22T04:02:58.095Z,15.48
2018-08-22T04:06:02.425Z,15.46
2018-08-22T04:09:07.951Z,15.42
2018-08-22T04:12:12.313Z,15.43
2018-08-22T04:15:16.644Z,15.40
2018-08-22T04:18:20.999Z,15.39
2018-08-22T04:21:25.313Z,15.38
2018-08-22T04:24:29.790Z,15.40
2018-08-22T04:27:34.313Z,15.40
2018-08-22T04:30:38.729Z,15.40
2018-08-22T04:33:43.158Z,15.41
2018-08-22T04:36:47.472Z,15.43
2018-08-22T04:39:51.757Z,15.43
2018-08-22T04:42:56.089Z,15.46
2018-08-22T04:46:00.349Z,15.46
2018-08-22T04:49:05.314Z,15.46
2018-08-22T04:52:09.546Z,15.50
2018-08-22T04:55:13.853Z,15.52
2018-08-22T04:58:18.103Z,15.54
2018-08-22T05:01:22.353Z,15.56
2018-08-22T05:04:26.714Z,15.57
2018-08-22T05:07:30.969Z,15.61
2018-08-22T05:10:35.209Z,15.65
2018-08-22T05:13:39.463Z,15.69
2018-08-22T05:16:43.709Z,15.75
2018-08-22T05:19:47.952Z,15.80
2018-08-22T05:22:52.205Z,15.85
2018-08-22T05:25:56.453Z,15.90
2018-08-22T05:29:00.684Z,15.94
2018-08-22T05:32:04.917Z,15.99
2018-08-22T05:35:09.123Z,16.05
2018-08-22T05:38:13.373Z,16.09
2018-08-22T05:41:17.630Z,16.17
2018-08-22T05:44:21.970Z,16.23
2018-08-22T05:47:26.219Z,16.29
2018-08-22T05:50:30.482Z,16.37
2018-08-22T05:53:34.710Z,16.44
2018-08-22T05:56:38.933Z,16.53
2018-08-22T05:59:43.186Z,16.58
2018-08-22T06:02:47.461Z,16.64
2018-08-22T06:05:51.693Z,16.73
2018-08-22T06:08:55.950Z,16.86
2018-08-22T06:12:00.209Z,16.97
2018-08-22T06:15:04.653Z,17.07
2018-08-22T06:18:08.893Z,17.16
2018-08-22T06:21:13.141Z,17.25
2018-08-22T06:24:17.359Z,17.34
2018-08-22T06:27:21.657Z,17.45
2018-08-22T06:30:25.877Z,17.56
2018-08-22T06:33:30.116Z,17.65
2018-08-22T06:36:34.339Z,17.74
2018-08-22T06:39:38.619Z,17.92
2018-08-22T06:42:42.862Z,18.06
2018-08-22T06:45:47.137Z,18.16
2018-08-22T06:48:51.368Z,18.28
2018-08-22T06:51:55.625Z,18.42
2018-08-22T06:54:59.865Z,18.60
2018-08-22T06:58:04.114Z,18.72
2018-08-22T07:01:08.378Z,18.84
2018-08-22T07:04:12.581Z,19.02
2018-08-22T07:07:17.173Z,19.18
2018-08-22T07:10:21.556Z,19.25
2018-08-22T07:13:25.811Z,19.36
2018-08-22T07:16:30.032Z,19.52
2018-08-22T07:19:34.454Z,19.74
2018-08-22T07:22:38.690Z,19.89
2018-08-22T07:25:42.890Z,19.98
2018-08-22T07:28:47.151Z,20.18
2018-08-22T07:31:51.378Z,20.33
2018-08-22T07:34:55.655Z,20.47
2018-08-22T07:37:59.941Z,20.58
2018-08-22T07:41:04.181Z,20.75
2018-08-22T07:44:09.259Z,20.91
2018-08-22T07:47:13.557Z,21.06
2018-08-22T07:50:17.801Z,21.10
2018-08-22T07:53:22.056Z,21.24
2018-08-22T07:56:26.268Z,21.31
2018-08-22T07:59:30.481Z,21.38
2018-08-22T08:02:34.709Z,21.50
2018-08-22T08:05:38.940Z,21.59
2018-08-22T08:08:43.208Z,21.73
2018-08-22T08:11:47.420Z,21.85
2018-08-22T08:15:06.045Z,21.95
2018-08-22T08:18:10.786Z,22.15
2018-08-22T08:21:15.016Z,22.32
2018-08-22T08:24:19.241Z,22.52
2018-08-22T08:27:24.175Z,22.59
2018-08-22T08:30:28.408Z,22.71
2018-08-22T08:33:32.629Z,22.77
2018-08-22T08:36:36.879Z,22.83
2018-08-22T08:39:41.134Z,22.96
2018-08-22T08:42:45.393Z,23.11
2018-08-22T08:45:49.634Z,23.22
2018-08-22T08:48:53.886Z,23.30
2018-08-22T08:52:00.505Z,23.34
2018-08-22T08:55:04.736Z,23.44
2018-08-22T08:58:08.993Z,23.58
2018-08-22T09:01:13.234Z,23.73
2018-08-22T09:04:17.466Z,23.87
2018-08-22T09:07:21.665Z,23.92
2018-08-22T09:10:25.957Z,24.01
2018-08-22T09:13:30.189Z,24.07
2018-08-22T09:16:34.433Z,24.14
2018-08-22T09:19:38.669Z,24.25
2018-08-22T09:22:42.947Z,24.32
2018-08-22T09:25:47.165Z,24.35
2018-08-22T09:28:51.400Z,24.49
2018-08-22T09:31:55.638Z,24.59
2018-08-22T09:34:59.919Z,24.76
2018-08-22T09:38:04.152Z,24.90
2018-08-22T09:41:08.381Z,25.00
2018-08-22T09:44:12.688Z,25.02
2018-08-22T09:47:16.928Z,25.05
2018-08-22T09:50:21.180Z,25.15
2018-08-22T09:53:25.512Z,25.21
2018-08-22T09:56:29.775Z,25.20
2018-08-22T09:59:34.865Z,25.31
2018-08-22T10:02:39.098Z,25.41
2018-08-22T10:05:43.341Z,25.50
2018-08-22T10:08:47.605Z,25.57
2018-08-22T10:11:51.902Z,25.58
2018-08-22T10:14:56.084Z,25.65
2018-08-22T10:18:00.346Z,25.80
2018-08-22T10:21:04.600Z,25.81
2018-08-22T10:24:08.837Z,25.85
2018-08-22T10:27:13.088Z,25.99
2018-08-22T10:30:17.336Z,25.95
2018-08-22T10:33:21.584Z,25.93
2018-08-22T10:36:25.908Z,25.94
2018-08-22T10:39:30.231Z,25.98
2018-08-22T10:42:34.444Z,26.02
2018-08-22T10:45:38.672Z,26.12
2018-08-22T10:48:42.926Z,26.16
2018-08-22T10:51:47.181Z,26.23
2018-08-22T10:54:51.444Z,26.31
2018-08-22T10:57:55.666Z,26.32
2018-08-22T11:01:00.402Z,26.37
2018-08-22T11:04:04.662Z,26.40
2018-08-22T11:07:08.908Z,26.42
2018-08-22T11:10:13.150Z,26.41
2018-08-22T11:13:17.357Z,26.43
2018-08-22T11:16:21.578Z,26.46
2018-08-22T11:19:25.813Z,26.59
2018-08-22T11:22:47.053Z,26.58
2018-08-22T11:26:08.437Z,26.70
2018-08-22T11:29:29.637Z,26.69
2018-08-22T11:32:50.837Z,26.75
2018-08-22T11:35:53.590Z,26.79
2018-08-22T11:38:57.871Z,26.84
2018-08-22T11:42:02.490Z,26.89
2018-08-22T11:45:06.758Z,26.96
2018-08-22T11:48:11.029Z,26.99
2018-08-22T11:51:15.510Z,27.09
2018-08-22T11:54:19.797Z,27.16
2018-08-22T11:57:24.091Z,27.13
2018-08-22T12:00:28.411Z,27.23
2018-08-22T12:03:32.929Z,27.25
2018-08-22T12:06:37.278Z,27.27
2018-08-22T12:09:41.556Z,27.21
2018-08-22T12:12:45.931Z,27.21
2018-08-22T12:15:50.201Z,27.40
2018-08-22T12:18:54.436Z,27.46
2018-08-22T12:21:58.678Z,27.40
2018-08-22T12:25:02.917Z,27.50
2018-08-22T12:28:07.253Z,27.60
2018-08-22T12:31:11.530Z,27.58
2018-08-22T12:34:15.744Z,27.53
2018-08-22T12:37:20.000Z,27.35
2018-08-22T12:40:24.217Z,27.30
2018-08-22T12:43:28.449Z,27.53
2018-08-22T12:46:32.686Z,27.67
2018-08-22T12:49:36.941Z,27.80
2018-08-22T12:52:41.195Z,27.80
2018-08-22T12:55:45.436Z,27.79
2018-08-22T12:58:49.669Z,27.70
2018-08-22T13:01:53.917Z,27.83
2018-08-22T13:04:58.154Z,27.94
2018-08-22T13:08:02.434Z,27.81
2018-08-22T13:11:06.700Z,27.77
2018-08-22T13:14:10.929Z,27.83
2018-08-22T13:17:15.161Z,27.89
2018-08-22T13:20:19.413Z,27.99
2018-08-22T13:23:23.710Z,28.04
2018-08-22T13:26:27.953Z,28.00
2018-08-22T13:29:32.189Z,27.99
2018-08-22T13:32:36.417Z,28.01
2018-08-22T13:35:40.645Z,28.03
2018-08-22T13:38:44.903Z,27.98
2018-08-22T13:41:49.141Z,27.86
2018-08-22T13:44:54.580Z,27.85
2018-08-22T13:47:59.432Z,27.86
2018-08-22T13:51:03.756Z,27.90
2018-08-22T13:54:08.017Z,27.84
2018-08-22T13:57:12.310Z,28.07
2018-08-22T14:00:16.619Z,28.19
2018-08-22T14:03:20.922Z,28.22
2018-08-22T14:06:25.157Z,28.19
2018-08-22T14:09:29.446Z,28.31
2018-08-22T14:12:33.813Z,28.40
2018-08-22T14:15:38.145Z,28.40
2018-08-22T14:18:42.598Z,28.28
2018-08-22T14:21:46.811Z,28.21
2018-08-22T14:24:51.057Z,28.10
2018-08-22T14:27:55.292Z,27.97
2018-08-22T14:30:59.530Z,28.08
2018-08-22T14:34:03.766Z,28.28
2018-08-22T14:37:08.013Z,28.50
2018-08-22T14:40:12.238Z,28.68
2018-08-22T14:43:16.480Z,28.83
2018-08-22T14:46:20.712Z,28.87
2018-08-22T14:49:24.937Z,28.75
2018-08-22T14:52:29.219Z,28.50
2018-08-22T14:55:33.566Z,28.31
2018-08-22T14:58:37.869Z,28.22
2018-08-22T15:01:42.190Z,28.11
2018-08-22T15:04:46.474Z,28.00
2018-08-22T15:07:50.688Z,28.03
2018-08-22T15:10:54.948Z,28.24
2018-08-22T15:13:59.191Z,28.47
2018-08-22T15:17:03.466Z,28.60
2018-08-22T15:20:07.729Z,28.78
2018-08-22T15:23:12.073Z,28.80
2018-08-22T15:26:16.362Z,28.76
2018-08-22T15:29:20.625Z,28.77
2018-08-22T15:32:25.807Z,28.86
2018-08-22T15:35:30.101Z,28.92
2018-08-22T15:38:34.357Z,28.98
2018-08-22T15:41:38.617Z,28.91
2018-08-22T15:44:42.994Z,28.86
2018-08-22T15:47:47.270Z,28.87
2018-08-22T15:50:51.524Z,28.91
2018-08-22T15:54:14.170Z,28.78
2018-08-22T15:57:18.417Z,28.71
2018-08-22T16:00:35.602Z,28.82
2018-08-22T16:03:39.844Z,28.86
2018-08-22T16:06:44.221Z,28.78
2018-08-22T16:09:49.865Z,28.77
2018-08-22T16:12:54.318Z,28.80
2018-08-22T16:16:01.185Z,28.56
2018-08-22T16:19:05.492Z,28.43
2018-08-22T16:22:09.725Z,28.30
2018-08-22T16:25:13.997Z,28.14
2018-08-22T16:28:18.341Z,27.99
2018-08-22T16:31:25.033Z,27.83
2018-08-22T16:34:29.273Z,27.68
2018-08-22T16:37:33.500Z,27.52
2018-08-22T16:40:38.937Z,27.37
2018-08-22T16:43:44.677Z,27.27
2018-08-22T16:46:48.911Z,27.16
2018-08-22T16:49:53.129Z,27.07
2018-08-22T16:52:57.337Z,26.95
2018-08-22T16:56:01.623Z,26.85
2018-08-22T16:59:11.198Z,26.81
2018-08-22T17:02:15.405Z,26.69
2018-08-22T17:05:19.621Z,26.58
2018-08-22T17:08:23.905Z,26.43
2018-08-22T17:11:28.133Z,26.37
2018-08-22T17:14:32.473Z,26.32
2018-08-22T17:17:36.766Z,26.25
2018-08-22T17:20:41.241Z,26.17
2018-08-22T17:23:46.001Z,26.13
2018-08-22T17:26:50.420Z,26.02
2018-08-22T17:29:54.783Z,25.97
2018-08-22T17:32:59.114Z,25.86
2018-08-22T17:36:03.377Z,25.77
2018-08-22T17:39:08.232Z,25.69
2018-08-22T17:42:12.572Z,25.58
2018-08-22T17:45:33.437Z,25.48
2018-08-22T17:48:37.661Z,25.35
2018-08-22T17:52:02.209Z,25.24
2018-08-22T17:55:06.455Z,25.11
2018-08-22T17:58:10.705Z,25.03
2018-08-22T18:01:14.974Z,24.91
2018-08-22T18:04:19.250Z,24.80
2018-08-22T18:07:23.543Z,24.70
2018-08-22T18:10:27.789Z,24.61
2018-08-22T18:13:32.022Z,24.52
2018-08-22T18:16:36.241Z,24.41
2018-08-22T18:19:40.615Z,24.34
2018-08-22T18:22:44.922Z,24.25
2018-08-22T18:25:54.353Z,24.17
2018-08-22T18:28:58.584Z,24.08
2018-08-22T18:32:02.805Z,23.98
2018-08-22T18:35:11.981Z,23.87
2018-08-22T18:38:16.228Z,23.78
2018-08-22T18:41:20.469Z,23.69
2018-08-22T18:44:24.738Z,23.60
2018-08-22T18:47:28.973Z,23.51
2018-08-22T18:50:33.205Z,23.41
2018-08-22T18:53:37.453Z,23.31
2018-08-22T18:56:41.706Z,23.19
2018-08-22T18:59:45.957Z,23.11
2018-08-22T19:02:53.060Z,23.04
2018-08-22T19:05:57.298Z,22.94
2018-08-22T19:09:01.591Z,22.86
2018-08-22T19:12:05.878Z,22.80
2018-08-22T19:15:10.117Z,22.73
2018-08-22T19:18:14.384Z,22.65
2018-08-22T19:21:18.599Z,22.59
2018-08-22T19:24:22.864Z,22.48
2018-08-22T19:27:27.042Z,22.41
2018-08-22T19:30:31.837Z,22.33
2018-08-22T19:33:36.101Z,22.27
2018-08-22T19:36:40.333Z,22.20
2018-08-22T19:40:01.679Z,22.12
2018-08-22T19:43:05.957Z,22.04
2018-08-22T19:46:10.228Z,21.96
2018-08-22T19:49:14.479Z,21.86
2018-08-22T19:52:18.735Z,21.79
2018-08-22T19:55:22.981Z,21.70
2018-08-22T19:58:34.372Z,21.63
2018-08-22T20:01:38.732Z,21.56
2018-08-22T20:04:44.436Z,21.51
2018-08-22T20:07:48.596Z,21.45
2018-08-22T20:10:52.842Z,21.39
2018-08-22T20:14:00.579Z,21.33
2018-08-22T20:17:04.899Z,21.28
2018-08-22T20:20:10.748Z,21.20
2018-08-22T20:23:15.039Z,21.15
2018-08-22T20:26:19.250Z,21.12
2018-08-22T20:29:23.494Z,21.07
2018-08-22T20:32:30.534Z,21.02
2018-08-22T20:35:39.033Z,20.93
2018-08-22T20:38:43.274Z,20.86
2018-08-22T20:41:48.395Z,20.80
2018-08-22T20:44:52.657Z,20.72
2018-08-22T20:48:02.258Z,20.61
2018-08-22T20:51:06.531Z,20.55
2018-08-22T20:54:12.825Z,20.47
2018-08-22T20:57:17.045Z,20.43
2018-08-22T21:00:23.805Z,20.39
2018-08-22T21:03:28.041Z,20.33
2018-08-22T21:06:32.256Z,20.30
2018-08-22T21:09:36.500Z,20.28
2018-08-22T21:12:40.741Z,20.27
2018-08-22T21:15:44.972Z,20.28
2018-08-22T21:18:49.221Z,20.28
2018-08-22T21:21:53.486Z,20.27
2018-08-22T21:24:59.381Z,20.28
2018-08-22T21:28:03.557Z,20.28
2018-08-22T21:31:07.749Z,20.29
2018-08-22T21:34:17.307Z,20.27
2018-08-22T21:37:29.532Z,20.25
2018-08-22T21:40:34.686Z,20.23
2018-08-22T21:43:38.940Z,20.21
2018-08-22T21:46:43.164Z,20.19
2018-08-22T21:49:47.417Z,20.17
2018-08-22T21:52:54.345Z,20.16
2018-08-22T21:55:58.573Z,20.09
2018-08-22T21:59:02.817Z,20.01
2018-08-22T22:02:08.358Z,19.95
2018-08-22T22:05:12.880Z,19.90
2018-08-22T22:08:17.124Z,19.87
2018-08-22T22:11:21.385Z,19.83
2018-08-22T22:14:27.506Z,19.80
2018-08-22T22:17:31.754Z,19.78
2018-08-22T22:20:35.992Z,19.76
2018-08-22T22:23:46.573Z,19.73
2018-08-22T22:26:50.801Z,19.67
2018-08-22T22:30:03.422Z,19.63
2018-08-22T22:33:07.654Z,19.59
2018-08-22T22:36:11.906Z,19.57
2018-08-22T22:39:34.148Z,19.53
2018-08-22T22:42:38.369Z,19.49
2018-08-22T22:45:42.613Z,19.48
2018-08-22T22:48:46.884Z,19.48
2018-08-22T22:51:51.121Z,19.45
2018-08-22T22:54:56.595Z,19.44
2018-08-22T22:58:00.909Z,19.43
2018-08-22T23:01:05.549Z,19.44
2018-08-22T23:04:09.844Z,19.44
2018-08-22T23:07:23.250Z,19.43
2018-08-22T23:10:27.511Z,19.39
2018-08-22T23:13:31.772Z,19.34
2018-08-22T23:16:37.017Z,19.31
2018-08-22T23:19:41.247Z,19.29
2018-08-22T23:22:45.985Z,19.27
2018-08-22T23:25:50.665Z,19.23
2018-08-22T23:28:54.925Z,19.20
2018-08-22T23:31:59.157Z,19.16
2018-08-22T23:35:21.119Z,19.10
2018-08-22T23:38:35.789Z,19.04
2018-08-22T23:41:40.044Z,18.99
2018-08-22T23:44:45.348Z,18.94
2018-08-22T23:47:49.632Z,18.90
2018-08-22T23:51:02.293Z,18.88
2018-08-22T23:54:06.541Z,18.85
2018-08-22T23:57:10.797Z,18.81
